Terminal Aerodrome Forecast
Issued by NWS Upton, NY

Current Version | Previous Version | Text Only | Print | Product List | Glossary On
Versions: 1 2 3 4 5 6 7 8 9 10 11 12 13 14 15 16 17 18 19 20 21 22 23 24 25 26 27 28 29 30 31 32 33 34 35 36
000
FTUS41 KOKX 301620 AAB
TAFEWR
TAF AMD
KEWR 301620Z 3016/3118 08005KT P6SM VCSH FEW025 BKN120
     FM302000 16007KT P6SM VCTS SCT040CB BKN120
     FM310000 16005KT 6SM -SHRA SCT020 BKN050
     FM310800 14006KT 5SM -SHRA BR BKN020 BKN050
     FM311400 14007KT 5SM -SHRA BR BKN020 BKN050=

USA.gov is the U.S. government's official web portal to all federal, state and local government web resources and services.